Time;durP1;ratioP1;P1;durP2;ratioP2;P2;SDS_P1;SDS_P2;PMS_P1;PMS_P2;Temp;Humidity;BMP_temperature;BMP_pressure;BME280_temperature;BME280_humidity;BME280_pressure;Samples;Min_cycle;Max_cycle;Signal;HPM_P1;HPM_P2
2023/09/04 00:00:45;;;;;;;10.90;9.40;;;15.00;99.90;;;;;;5072162;28;20632;-73
2023/09/04 00:03:11;;;;;;;11.97;8.90;;;15.00;99.90;;;;;;5071885;28;20181;-73
2023/09/04 00:05:36;;;;;;;14.13;9.03;;;15.00;99.90;;;;;;5071939;28;20214;-73
2023/09/04 00:08:02;;;;;;;9.73;8.87;;;15.00;99.90;;;;;;5072029;28;20253;-74
2023/09/04 00:10:28;;;;;;;9.87;8.97;;;15.00;99.90;;;;;;5072172;28;20167;-73
2023/09/04 00:12:54;;;;;;;12.80;8.57;;;14.90;99.90;;;;;;5071666;28;20174;-73
2023/09/04 00:15:20;;;;;;;11.20;9.23;;;14.90;99.90;;;;;;5070528;28;20194;-73
2023/09/04 00:17:50;;;;;;;9.87;8.83;;;14.90;99.90;;;;;;5071958;28;20700;-73
2023/09/04 00:20:16;;;;;;;8.97;8.07;;;14.90;99.90;;;;;;5071921;28;20225;-73
2023/09/04 00:22:42;;;;;;;9.83;8.60;;;14.90;99.90;;;;;;5070424;28;20182;-73
2023/09/04 00:25:07;;;;;;;9.13;8.23;;;14.90;99.90;;;;;;5071169;28;20205;-73
2023/09/04 00:27:33;;;;;;;9.33;8.33;;;14.80;99.90;;;;;;5072146;28;20195;-73
2023/09/04 00:29:59;;;;;;;9.67;8.67;;;14.80;99.90;;;;;;5071942;28;20625;-73
2023/09/04 00:32:25;;;;;;;10.97;9.73;;;14.80;99.90;;;;;;5071282;28;20644;-73
2023/09/04 00:34:50;;;;;;;10.27;9.27;;;14.80;99.90;;;;;;5071638;28;20557;-73
2023/09/04 00:37:16;;;;;;;10.33;9.20;;;14.70;99.90;;;;;;5071858;28;20181;-73
2023/09/04 00:39:41;;;;;;;12.50;11.20;;;14.70;99.90;;;;;;5071755;28;20208;-73
2023/09/04 00:42:09;;;;;;;10.93;9.83;;;14.70;99.90;;;;;;5071334;28;20185;-73
2023/09/04 00:44:34;;;;;;;12.07;10.67;;;14.70;99.90;;;;;;5071398;28;20209;-73
2023/09/04 00:47:01;;;;;;;10.20;9.20;;;14.70;99.90;;;;;;5071822;28;20590;-73
2023/09/04 00:49:28;;;;;;;13.37;11.23;;;14.60;99.90;;;;;;5071702;28;20181;-73
2023/09/04 00:51:55;;;;;;;13.10;10.97;;;14.60;99.90;;;;;;5071625;28;20257;-73
2023/09/04 00:54:21;;;;;;;11.90;10.37;;;14.60;99.90;;;;;;5071462;28;20193;-73
2023/09/04 00:56:51;;;;;;;13.77;11.17;;;14.60;99.90;;;;;;5071573;28;20530;-73
2023/09/04 00:59:18;;;;;;;11.30;10.17;;;14.60;99.90;;;;;;5071729;28;20602;-73
2023/09/04 01:01:43;;;;;;;12.33;10.47;;;14.50;99.90;;;;;;5072629;28;20601;-73
2023/09/04 01:04:09;;;;;;;12.33;11.13;;;14.50;99.90;;;;;;5072668;28;20233;-73
2023/09/04 01:06:35;;;;;;;12.10;10.47;;;14.50;99.90;;;;;;5072808;28;20170;-74
2023/09/04 01:09:01;;;;;;;12.73;11.37;;;14.50;99.90;;;;;;5072737;28;20185;-73
2023/09/04 01:11:40;;;;;;;16.13;12.40;;;14.50;99.90;;;;;;5071016;28;20575;-73
2023/09/04 01:14:13;;;;;;;13.97;11.37;;;14.50;99.90;;;;;;5071702;28;20181;-73
2023/09/04 01:16:39;;;;;;;11.97;10.77;;;14.50;99.90;;;;;;5071477;28;20177;-74
2023/09/04 01:19:06;;;;;;;16.07;11.67;;;14.50;99.90;;;;;;5071314;28;20173;-73
2023/09/04 01:21:38;;;;;;;12.40;11.03;;;14.40;99.90;;;;;;5068509;28;20547;-74
2023/09/04 01:24:04;;;;;;;13.13;10.67;;;14.40;99.90;;;;;;5071133;28;20372;-74
2023/09/04 01:26:47;;;;;;;12.97;11.70;;;14.30;99.90;;;;;;5071195;28;20501;-73
2023/09/04 01:29:16;;;;;;;13.97;11.80;;;14.30;99.90;;;;;;5071117;28;20527;-74
2023/09/04 01:31:48;;;;;;;12.40;11.10;;;14.30;99.90;;;;;;5069541;28;20178;-74
2023/09/04 01:34:23;;;;;;;12.87;10.53;;;14.30;99.90;;;;;;5070909;28;20186;-73
2023/09/04 01:36:52;;;;;;;12.27;10.87;;;14.20;99.90;;;;;;5075091;28;20170;-74
2023/09/04 01:39:20;;;;;;;13.77;12.33;;;14.20;99.90;;;;;;5074832;28;20170;-74
2023/09/04 01:41:46;;;;;;;11.43;10.30;;;14.20;99.90;;;;;;5074538;28;20186;-74
2023/09/04 01:44:13;;;;;;;12.67;11.23;;;14.20;99.90;;;;;;5074715;28;20202;-74
2023/09/04 01:46:38;;;;;;;13.87;11.17;;;14.10;99.90;;;;;;5074653;28;20167;-74
2023/09/04 01:49:04;;;;;;;13.37;11.10;;;14.10;99.90;;;;;;5074869;28;20670;-74
2023/09/04 01:51:29;;;;;;;12.20;10.90;;;14.10;99.90;;;;;;5074652;28;20174;-73
2023/09/04 01:53:55;;;;;;;11.87;10.77;;;14.10;99.90;;;;;;5074552;28;20170;-73
2023/09/04 01:56:21;;;;;;;12.20;11.00;;;14.00;99.90;;;;;;5074600;28;20181;-73
2023/09/04 01:58:46;;;;;;;13.80;12.40;;;14.00;99.90;;;;;;5074500;28;20711;-73
2023/09/04 02:01:13;;;;;;;12.40;11.10;;;14.00;99.90;;;;;;5074502;28;20170;-73
2023/09/04 02:03:38;;;;;;;15.70;10.57;;;14.00;99.90;;;;;;5074268;28;20202;-73
2023/09/04 02:06:04;;;;;;;13.27;11.60;;;14.00;99.90;;;;;;5074429;28;20736;-73
2023/09/04 02:08:30;;;;;;;14.13;11.70;;;14.00;99.90;;;;;;5074514;28;20177;-73
2023/09/04 02:10:58;;;;;;;12.63;11.33;;;13.90;99.90;;;;;;5074466;28;20225;-74
2023/09/04 02:13:23;;;;;;;12.40;11.10;;;13.90;99.90;;;;;;5074000;28;20173;-73
2023/09/04 02:15:50;;;;;;;12.53;9.93;;;13.90;99.90;;;;;;5074406;28;20276;-73
2023/09/04 02:18:16;;;;;;;14.30;10.70;;;13.90;99.90;;;;;;5074329;28;20166;-73
2023/09/04 02:20:41;;;;;;;13.77;11.13;;;13.80;99.90;;;;;;5073547;28;20580;-73
2023/09/04 02:23:07;;;;;;;12.83;11.43;;;13.80;99.90;;;;;;5073994;28;20170;-73
2023/09/04 02:25:32;;;;;;;12.97;10.70;;;13.80;99.90;;;;;;5073973;28;20209;-73
2023/09/04 02:27:58;;;;;;;13.73;11.63;;;13.80;99.90;;;;;;5074348;28;20707;-74
2023/09/04 02:30:24;;;;;;;12.27;10.97;;;13.70;99.90;;;;;;5072760;28;20219;-73
2023/09/04 02:32:49;;;;;;;12.20;10.60;;;13.70;99.90;;;;;;5073804;28;20171;-73
2023/09/04 02:35:16;;;;;;;11.77;10.57;;;13.70;99.90;;;;;;5074032;28;20197;-73
2023/09/04 02:37:43;;;;;;;12.57;10.30;;;13.70;99.90;;;;;;5074112;28;20178;-73
2023/09/04 02:40:10;;;;;;;12.67;11.27;;;13.70;99.90;;;;;;5074255;28;20533;-73
2023/09/04 02:42:35;;;;;;;12.03;10.83;;;13.60;99.90;;;;;;5073412;28;20185;-73
2023/09/04 02:45:02;;;;;;;11.70;10.50;;;13.60;99.90;;;;;;5073975;28;20589;-73
2023/09/04 02:47:28;;;;;;;12.17;10.80;;;13.60;99.90;;;;;;5071467;28;20174;-73
2023/09/04 02:49:55;;;;;;;12.67;11.37;;;13.60;99.90;;;;;;5072677;28;20590;-73
2023/09/04 02:52:21;;;;;;;16.57;11.00;;;13.50;99.90;;;;;;5073344;28;20355;-73
2023/09/04 02:54:46;;;;;;;12.20;10.93;;;13.50;99.90;;;;;;5073603;28;20271;-73
2023/09/04 02:57:12;;;;;;;13.33;11.40;;;13.50;99.90;;;;;;5073797;28;20399;-73
2023/09/04 02:59:37;;;;;;;12.70;11.30;;;13.50;99.90;;;;;;5073667;28;20547;-73
2023/09/04 03:02:03;;;;;;;14.67;11.57;;;13.50;99.90;;;;;;5073353;28;20200;-73
2023/09/04 03:04:29;;;;;;;14.40;10.93;;;13.50;99.90;;;;;;5073218;28;20206;-74
2023/09/04 03:06:55;;;;;;;12.80;11.47;;;13.40;99.90;;;;;;5073531;28;20174;-73
2023/09/04 03:09:20;;;;;;;12.17;10.67;;;13.50;99.90;;;;;;5073762;28;20679;-73
2023/09/04 03:11:46;;;;;;;11.87;10.67;;;13.50;99.90;;;;;;5073200;28;20181;-73
2023/09/04 03:14:11;;;;;;;13.97;11.53;;;13.50;99.90;;;;;;5073239;28;20190;-73
2023/09/04 03:16:38;;;;;;;12.63;11.33;;;13.40;99.90;;;;;;5073056;28;20655;-73
2023/09/04 03:19:04;;;;;;;13.50;11.20;;;13.40;99.90;;;;;;5072027;28;20178;-73
2023/09/04 03:21:31;;;;;;;13.93;11.23;;;13.40;99.90;;;;;;5072829;28;20535;-74
2023/09/04 03:23:56;;;;;;;14.43;11.20;;;13.40;99.90;;;;;;5072998;28;20194;-73
2023/09/04 03:26:22;;;;;;;13.90;10.53;;;13.40;99.90;;;;;;5073200;28;20674;-73
2023/09/04 03:28:48;;;;;;;15.17;11.60;;;13.40;99.90;;;;;;5072976;28;20173;-73
2023/09/04 03:31:14;;;;;;;12.70;11.30;;;13.40;99.90;;;;;;5072913;28;20198;-74
2023/09/04 03:33:40;;;;;;;15.40;11.93;;;13.50;99.90;;;;;;5072845;28;20174;-74
2023/09/04 03:36:06;;;;;;;12.83;10.97;;;13.40;99.90;;;;;;5072895;28;20198;-74
2023/09/04 03:38:32;;;;;;;14.07;10.77;;;13.40;99.90;;;;;;5072712;28;20268;-73
2023/09/04 03:40:57;;;;;;;12.30;10.40;;;13.30;99.90;;;;;;5071487;28;20189;-72
2023/09/04 03:43:23;;;;;;;13.17;11.03;;;13.20;99.90;;;;;;5072284;28;20174;-73
2023/09/04 03:45:49;;;;;;;11.73;10.53;;;13.20;99.90;;;;;;5072922;28;20592;-73
2023/09/04 03:48:14;;;;;;;14.00;12.53;;;13.20;99.90;;;;;;5072687;28;20177;-73
2023/09/04 03:50:40;;;;;;;13.63;12.17;;;13.20;99.90;;;;;;5072434;28;20621;-72
2023/09/04 03:53:05;;;;;;;15.10;12.40;;;13.20;99.90;;;;;;5072394;28;20252;-73
2023/09/04 03:55:31;;;;;;;15.13;11.63;;;13.20;99.90;;;;;;5072314;28;20201;-73
2023/09/04 03:57:58;;;;;;;17.33;13.43;;;13.20;99.90;;;;;;5072406;28;20190;-73
2023/09/04 04:00:24;;;;;;;14.57;12.00;;;13.10;99.90;;;;;;5072320;28;20235;-73
2023/09/04 04:02:51;;;;;;;14.90;12.60;;;13.20;99.90;;;;;;5072208;28;20170;-73
2023/09/04 04:05:17;;;;;;;15.00;12.80;;;13.20;99.90;;;;;;5072105;28;20232;-74
2023/09/04 04:07:44;;;;;;;16.97;12.83;;;13.20;99.90;;;;;;5070986;28;20635;-73
2023/09/04 04:10:10;;;;;;;14.77;11.90;;;13.20;99.90;;;;;;5072416;28;20165;-73
2023/09/04 04:12:36;;;;;;;20.77;12.53;;;13.20;99.90;;;;;;5071639;28;20170;-73
2023/09/04 04:15:05;;;;;;;16.17;12.33;;;13.10;99.90;;;;;;5070876;28;20202;-73
2023/09/04 04:17:32;;;;;;;17.60;13.03;;;13.10;99.90;;;;;;5072054;28;20174;-73
2023/09/04 04:19:58;;;;;;;18.37;14.20;;;13.10;99.90;;;;;;5072149;28;20177;-73
2023/09/04 04:22:24;;;;;;;17.03;13.20;;;13.10;99.90;;;;;;5071628;28;20640;-73
2023/09/04 04:24:50;;;;;;;16.77;13.43;;;13.10;99.90;;;;;;5070366;28;20209;-73
2023/09/04 04:27:16;;;;;;;17.97;12.97;;;13.10;99.90;;;;;;5071844;28;20162;-73
2023/09/04 04:29:43;;;;;;;16.13;12.43;;;13.20;99.90;;;;;;5071904;28;20181;-73
2023/09/04 04:32:08;;;;;;;15.90;12.60;;;13.10;99.90;;;;;;5071622;28;20246;-73
2023/09/04 04:34:34;;;;;;;17.03;14.33;;;13.20;99.90;;;;;;5071507;28;20677;-73
2023/09/04 04:37:00;;;;;;;20.67;13.17;;;13.20;99.90;;;;;;5071680;28;20264;-73
2023/09/04 04:39:26;;;;;;;16.97;13.27;;;13.20;99.90;;;;;;5071681;28;20667;-74
2023/09/04 04:41:51;;;;;;;15.73;12.67;;;13.20;99.90;;;;;;5071323;28;20231;-73
2023/09/04 04:44:17;;;;;;;16.60;12.37;;;13.20;99.90;;;;;;5071409;28;20206;-73
2023/09/04 04:46:43;;;;;;;15.80;12.50;;;13.20;99.90;;;;;;5071369;28;20170;-73
2023/09/04 04:49:09;;;;;;;14.83;12.07;;;13.20;99.90;;;;;;5071725;28;20174;-73
2023/09/04 04:51:35;;;;;;;15.50;12.37;;;13.20;99.90;;;;;;5071285;28;20220;-73
2023/09/04 04:54:00;;;;;;;15.07;12.30;;;13.20;99.90;;;;;;5071369;28;20635;-73
2023/09/04 04:56:27;;;;;;;15.57;12.73;;;13.20;99.90;;;;;;5072007;28;20166;-73
2023/09/04 04:58:52;;;;;;;16.63;12.67;;;13.20;99.90;;;;;;5071225;28;20185;-73
2023/09/04 05:01:18;;;;;;;14.53;12.00;;;13.20;99.90;;;;;;5071125;28;20543;-73
2023/09/04 05:03:43;;;;;;;15.80;12.13;;;13.20;99.90;;;;;;5071303;28;20253;-73
2023/09/04 05:06:09;;;;;;;14.13;12.47;;;13.20;99.90;;;;;;5071239;28;20198;-73
2023/09/04 05:08:35;;;;;;;14.27;11.77;;;13.20;99.90;;;;;;5071498;28;20166;-73
2023/09/04 05:11:03;;;;;;;14.60;11.67;;;13.20;99.90;;;;;;5070718;28;20174;-73
2023/09/04 05:13:30;;;;;;;13.03;10.97;;;13.10;99.90;;;;;;5070836;28;20273;-73
2023/09/04 05:15:55;;;;;;;16.33;11.13;;;13.20;99.90;;;;;;5071171;28;20311;-73
2023/09/04 05:18:21;;;;;;;13.30;10.80;;;13.10;99.90;;;;;;5071164;28;20249;-73
2023/09/04 05:20:48;;;;;;;12.57;11.23;;;13.20;99.90;;;;;;5070740;28;20741;-73
2023/09/04 05:23:14;;;;;;;17.70;11.37;;;13.10;99.90;;;;;;5069691;28;20174;-73
2023/09/04 05:25:53;;;;;;;12.90;11.33;;;13.20;99.90;;;;;;5071235;28;20294;-73
2023/09/04 05:28:20;;;;;;;13.30;11.40;;;13.20;99.90;;;;;;5070961;28;20216;-73
2023/09/04 05:30:45;;;;;;;13.57;11.57;;;13.30;99.90;;;;;;5071459;28;20252;-73
2023/09/04 05:33:11;;;;;;;14.13;12.20;;;13.30;99.90;;;;;;5071221;28;20220;-73
2023/09/04 05:35:37;;;;;;;15.67;12.17;;;13.40;99.90;;;;;;5071398;28;20206;-73
2023/09/04 05:38:03;;;;;;;14.23;12.43;;;13.40;99.90;;;;;;5071305;28;20563;-74
2023/09/04 05:40:29;;;;;;;16.47;12.63;;;13.40;99.90;;;;;;5071067;28;20205;-74
2023/09/04 05:42:54;;;;;;;17.87;13.00;;;13.40;99.90;;;;;;5070536;28;20193;-74
2023/09/04 05:45:21;;;;;;;16.93;13.27;;;13.50;99.90;;;;;;5070845;28;20764;-74
2023/09/04 05:47:47;;;;;;;16.53;13.70;;;13.50;99.90;;;;;;5071002;28;20236;-74
2023/09/04 05:50:13;;;;;;;19.73;13.67;;;13.60;99.90;;;;;;5070931;28;20269;-74
2023/09/04 05:52:39;;;;;;;15.97;12.83;;;13.70;99.90;;;;;;5070976;28;20166;-72
2023/09/04 05:55:05;;;;;;;19.07;13.30;;;13.70;99.90;;;;;;5070882;28;20294;-73
2023/09/04 05:57:31;;;;;;;16.80;13.30;;;13.90;99.90;;;;;;5070878;28;20206;-73
2023/09/04 05:59:56;;;;;;;14.67;12.10;;;14.00;99.90;;;;;;5071032;28;20240;-73
2023/09/04 06:02:22;;;;;;;19.27;13.17;;;14.00;99.90;;;;;;5070407;28;20174;-73
2023/09/04 06:04:48;;;;;;;14.70;12.07;;;14.10;99.90;;;;;;5069164;28;20210;-74
2023/09/04 06:07:15;;;;;;;14.07;12.60;;;14.20;99.90;;;;;;5070802;28;20228;-73
2023/09/04 06:09:42;;;;;;;17.20;13.17;;;14.30;99.90;;;;;;5070751;28;20588;-73
2023/09/04 06:12:08;;;;;;;13.83;11.83;;;14.40;99.90;;;;;;5070475;28;20167;-73
2023/09/04 06:14:34;;;;;;;15.10;11.97;;;14.60;99.90;;;;;;5070735;28;20222;-74
2023/09/04 06:17:00;;;;;;;13.50;12.10;;;14.90;99.90;;;;;;5070568;28;20198;-73
2023/09/04 06:19:27;;;;;;;14.43;11.80;;;15.30;99.90;;;;;;5070651;28;20291;-73
2023/09/04 06:21:53;;;;;;;13.43;11.57;;;15.70;99.90;;;;;;5070016;28;20174;-74
2023/09/04 06:24:19;;;;;;;28.13;11.07;;;16.00;99.90;;;;;;5073862;28;20209;-74
2023/09/04 06:26:44;;;;;;;10.33;9.33;;;16.40;99.90;;;;;;5073368;28;20174;-73
2023/09/04 06:29:10;;;;;;;10.50;8.80;;;16.70;99.90;;;;;;5074131;28;20205;-73
2023/09/04 06:31:35;;;;;;;8.60;7.77;;;17.10;99.90;;;;;;5073676;28;20307;-74
2023/09/04 06:34:03;;;;;;;7.97;7.10;;;17.40;99.90;;;;;;5073939;28;20170;-73
2023/09/04 06:36:29;;;;;;;6.97;6.10;;;17.70;99.90;;;;;;5073893;28;20509;-74
2023/09/04 06:38:54;;;;;;;6.93;5.70;;;18.00;99.90;;;;;;5073751;28;20174;-74
2023/09/04 06:41:21;;;;;;;6.57;5.83;;;18.10;99.90;;;;;;5073567;28;20196;-74
2023/09/04 06:43:47;;;;;;;6.00;5.40;;;18.50;99.90;;;;;;5073628;28;20531;-74
2023/09/04 06:46:13;;;;;;;5.10;4.70;;;18.70;99.90;;;;;;5073624;28;20190;-74
2023/09/04 06:48:39;;;;;;;6.75;4.60;;;19.10;99.90;;;;;;5073526;28;20253;-74
2023/09/04 06:51:04;;;;;;;5.40;4.93;;;19.50;99.90;;;;;;5073655;28;20245;-73
2023/09/04 06:53:30;;;;;;;8.52;4.43;;;19.90;99.90;;;;;;5073429;28;20231;-74
2023/09/04 06:55:56;;;;;;;5.05;4.63;;;20.20;99.90;;;;;;5072477;28;20597;-74
2023/09/04 06:58:22;;;;;;;6.38;4.45;;;20.60;99.90;;;;;;5072080;28;20201;-74
2023/09/04 07:00:47;;;;;;;6.95;4.70;;;21.10;99.90;;;;;;5073503;28;20536;-74
2023/09/04 07:03:13;;;;;;;5.43;4.47;;;21.50;99.90;;;;;;5073176;28;20166;-75
2023/09/04 07:05:39;;;;;;;7.97;4.32;;;22.00;99.90;;;;;;5073253;28;20202;-75
2023/09/04 07:08:05;;;;;;;6.15;4.55;;;22.40;99.90;;;;;;5073324;28;20193;-75
2023/09/04 07:10:31;;;;;;;4.95;4.45;;;22.70;99.90;;;;;;5073212;28;20599;-75
2023/09/04 07:13:00;;;;;;;6.40;5.13;;;23.10;99.90;;;;;;5072801;28;20215;-75
2023/09/04 07:15:25;;;;;;;6.63;4.43;;;23.30;99.90;;;;;;5073142;28;20190;-75
2023/09/04 07:17:51;;;;;;;5.18;4.78;;;23.70;99.90;;;;;;5073101;28;20185;-73
2023/09/04 07:20:17;;;;;;;6.95;4.15;;;24.00;99.90;;;;;;5071648;28;20189;-73
2023/09/04 07:22:43;;;;;;;5.97;5.45;;;24.40;99.90;;;;;;5072454;28;20225;-74
2023/09/04 07:25:09;;;;;;;4.20;3.83;;;24.60;99.90;;;;;;5072843;28;20706;-74
2023/09/04 07:27:34;;;;;;;4.43;3.95;;;24.90;99.90;;;;;;5074461;28;20162;-74
2023/09/04 07:30:00;;;;;;;4.55;4.22;;;25.20;99.90;;;;;;5075268;28;20654;-74
2023/09/04 07:32:26;;;;;;;3.60;3.30;;;25.40;99.90;;;;;;5074134;28;20181;-74
2023/09/04 07:34:56;;;;;;;6.22;3.47;;;25.30;99.90;;;;;;5074581;28;20194;-73
2023/09/04 07:37:26;;;;;;;3.08;2.88;;;25.30;99.90;;;;;;5073087;28;20179;-73
2023/09/04 07:39:53;;;;;;;5.70;3.53;;;25.20;99.90;;;;;;5074514;28;20170;-74
2023/09/04 07:42:19;;;;;;;4.05;3.65;;;25.20;99.90;;;;;;5074133;28;20626;-73
2023/09/04 07:44:45;;;;;;;4.82;3.20;;;25.10;99.90;;;;;;5074206;28;20651;-74
2023/09/04 07:47:10;;;;;;;5.07;3.13;;;25.00;99.90;;;;;;5074232;28;20209;-75
2023/09/04 07:49:36;;;;;;;3.92;3.05;;;25.00;99.90;;;;;;5074395;28;20371;-75
2023/09/04 07:52:01;;;;;;;7.10;3.42;;;24.90;99.90;;;;;;5073811;28;20245;-74
2023/09/04 07:54:27;;;;;;;3.58;3.38;;;25.10;99.90;;;;;;5072908;28;20247;-73
2023/09/04 07:56:53;;;;;;;4.03;3.72;;;25.20;99.90;;;;;;5072138;28;20193;-74
2023/09/04 07:59:18;;;;;;;3.40;3.10;;;25.30;99.90;;;;;;5072225;28;20185;-73
2023/09/04 08:01:44;;;;;;;4.90;3.80;;;25.40;99.90;;;;;;5071930;28;20170;-75
2023/09/04 08:04:09;;;;;;;3.58;3.35;;;25.30;99.90;;;;;;5072030;28;20201;-74
2023/09/04 08:06:36;;;;;;;5.22;3.25;;;25.30;99.90;;;;;;5072289;28;20174;-74
2023/09/04 08:09:01;;;;;;;3.40;3.13;;;25.60;99.90;;;;;;5072052;28;20163;-74
2023/09/04 08:11:27;;;;;;;4.85;3.28;;;25.90;99.90;;;;;;5071733;28;20174;-73
2023/09/04 08:13:52;;;;;;;3.45;3.15;;;26.20;99.90;;;;;;5071923;28;20170;-74
2023/09/04 08:16:18;;;;;;;3.67;3.38;;;26.40;99.90;;;;;;5071980;28;20185;-72
2023/09/04 08:18:44;;;;;;;3.72;3.42;;;26.40;99.90;;;;;;5070623;28;20644;-73
2023/09/04 08:21:09;;;;;;;4.55;3.97;;;26.40;99.90;;;;;;5071674;28;20545;-74
2023/09/04 08:23:35;;;;;;;4.70;3.28;;;26.40;99.90;;;;;;5071418;28;20604;-74
2023/09/04 08:26:02;;;;;;;3.33;3.03;;;26.50;99.90;;;;;;5071714;28;20190;-73
2023/09/04 08:28:28;;;;;;;3.90;3.60;;;26.60;99.90;;;;;;5071750;28;20253;-74
2023/09/04 08:30:54;;;;;;;3.95;3.63;;;26.60;99.90;;;;;;5071540;28;20603;-74
2023/09/04 08:33:20;;;;;;;3.63;3.33;;;26.50;99.90;;;;;;5071252;28;20193;-73
2023/09/04 08:35:46;;;;;;;3.30;2.95;;;26.80;99.90;;;;;;5071638;28;20276;-73
2023/09/04 08:38:12;;;;;;;3.95;2.97;;;27.00;99.90;;;;;;5071616;28;20185;-73
2023/09/04 08:40:40;;;;;;;3.30;3.03;;;27.20;99.90;;;;;;5071436;28;20166;-73
2023/09/04 08:43:08;;;;;;;3.78;3.25;;;27.40;99.90;;;;;;5071229;28;20663;-73
2023/09/04 08:45:35;;;;;;;2.60;2.40;;;27.80;99.90;;;;;;5070502;28;20241;-73
2023/09/04 08:48:02;;;;;;;3.05;2.85;;;28.20;99.90;;;;;;5071533;28;20256;-73
2023/09/04 08:50:29;;;;;;;3.22;2.92;;;28.30;99.90;;;;;;5071408;28;20170;-74
2023/09/04 08:52:55;;;;;;;4.07;3.75;;;28.30;99.90;;;;;;5071022;28;20170;-74
2023/09/04 08:55:21;;;;;;;4.13;3.72;;;28.20;99.90;;;;;;5071226;28;20216;-74
2023/09/04 08:57:47;;;;;;;5.00;4.50;;;28.20;99.90;;;;;;5071406;28;20197;-73
2023/09/04 09:00:14;;;;;;;4.28;4.00;;;28.10;99.90;;;;;;5071238;28;20170;-75
2023/09/04 09:02:41;;;;;;;6.25;5.15;;;28.20;99.90;;;;;;5071099;28;20166;-75
2023/09/04 09:05:08;;;;;;;8.10;7.63;;;28.00;99.90;;;;;;5071400;28;20201;-75
2023/09/04 09:07:35;;;;;;;3.67;3.47;;;27.60;99.90;;;;;;5071409;28;20170;-73
2023/09/04 09:10:07;;;;;;;4.13;3.72;;;27.40;99.90;;;;;;5071585;28;20532;-74
2023/09/04 09:12:33;;;;;;;4.97;4.63;;;27.40;99.90;;;;;;5070852;28;20170;-74
2023/09/04 09:14:59;;;;;;;3.53;3.22;;;27.90;99.90;;;;;;5071048;28;20526;-75
2023/09/04 09:17:25;;;;;;;3.63;3.33;;;28.10;99.90;;;;;;5071121;28;20170;-72
2023/09/04 09:19:51;;;;;;;7.40;6.90;;;27.90;99.90;;;;;;5071233;28;20648;-73
2023/09/04 09:22:18;;;;;;;5.28;4.88;;;27.80;99.90;;;;;;5070724;28;20235;-74
2023/09/04 09:24:52;;;;;;;4.97;4.53;;;27.80;99.90;;;;;;5071268;28;20202;-74
2023/09/04 09:27:20;;;;;;;3.25;3.05;;;28.00;99.90;;;;;;5071082;28;20537;-74
2023/09/04 09:29:47;;;;;;;4.53;3.83;;;28.30;99.90;;;;;;5071021;28;20185;-73
2023/09/04 09:32:15;;;;;;;4.70;4.40;;;28.40;99.90;;;;;;5070653;28;20169;-73
2023/09/04 09:34:40;;;;;;;5.40;4.95;;;28.50;99.90;;;;;;5070883;28;20250;-74
2023/09/04 09:37:08;;;;;;;4.75;4.25;;;28.80;99.90;;;;;;5070781;28;20178;-73
2023/09/04 09:39:34;;;;;;;9.52;4.30;;;29.00;99.90;;;;;;5070844;28;20201;-73
2023/09/04 09:42:01;;;;;;;4.30;3.55;;;29.30;99.90;;;;;;5070572;28;20186;-70
2023/09/04 09:44:33;;;;;;;3.53;3.22;;;29.50;99.90;;;;;;5069347;28;20213;-70
2023/09/04 09:46:59;;;;;;;8.15;3.40;;;29.20;99.90;;;;;;5070829;28;20547;-72
2023/09/04 09:49:25;;;;;;;4.72;4.38;;;28.70;99.90;;;;;;5070795;28;20163;-73
2023/09/04 09:51:53;;;;;;;4.68;4.30;;;28.40;99.90;;;;;;5070649;28;20641;-73
2023/09/04 09:54:35;;;;;;;5.72;5.32;;;28.10;99.90;;;;;;5070729;28;20194;-74
2023/09/04 09:57:02;;;;;;;5.10;4.72;;;28.20;99.90;;;;;;5073349;28;20162;-76
2023/09/04 09:59:30;;;;;;;4.90;4.60;;;28.10;99.90;;;;;;5074790;28;20520;-75
2023/09/04 10:01:56;;;;;;;3.92;3.58;;;28.20;99.90;;;;;;5073048;28;20649;-74
2023/09/04 10:04:24;;;;;;;4.30;3.90;;;28.20;99.90;;;;;;5074254;28;20290;-73
2023/09/04 10:06:52;;;;;;;4.00;3.78;;;28.20;99.90;;;;;;5074477;28;20170;-73
2023/09/04 10:09:21;;;;;;;3.40;3.10;;;28.10;99.90;;;;;;5074512;28;20644;-74
2023/09/04 10:11:57;;;;;;;3.85;3.30;;;27.70;99.90;;;;;;5074150;28;20174;-73
2023/09/04 10:14:32;;;;;;;4.15;3.85;;;27.70;99.90;;;;;;5074023;28;20193;-75
2023/09/04 10:17:01;;;;;;;6.72;6.05;;;27.50;99.90;;;;;;5074207;28;20750;-73
2023/09/04 10:19:32;;;;;;;4.97;4.57;;;27.30;99.90;;;;;;5074142;28;20201;-73
2023/09/04 10:22:14;;;;;;;4.50;4.18;;;27.10;99.90;;;;;;5073979;28;20251;-73
2023/09/04 10:25:05;;;;;;;6.07;4.00;;;27.00;99.90;;;;;;5074174;28;20214;-72
2023/09/04 10:27:34;;;;;;;4.93;4.63;;;26.90;99.90;;;;;;5074019;28;20182;-73
2023/09/04 10:30:05;;;;;;;3.42;3.13;;;26.60;99.90;;;;;;5074420;28;20632;-74
2023/09/04 10:32:31;;;;;;;4.10;3.35;;;26.30;99.90;;;;;;5073637;28;20167;-73
2023/09/04 10:34:57;;;;;;;5.32;3.38;;;26.20;99.90;;;;;;5073886;28;20574;-73
2023/09/04 10:37:26;;;;;;;3.50;3.20;;;26.00;99.90;;;;;;5074025;28;20170;-73
2023/09/04 10:39:53;;;;;;;3.97;3.55;;;26.00;99.90;;;;;;5073945;28;20253;-73
2023/09/04 10:42:23;;;;;;;3.28;3.08;;;25.90;99.90;;;;;;5073319;28;20190;-74
2023/09/04 10:44:51;;;;;;;3.92;3.20;;;25.90;99.90;;;;;;5073755;28;20206;-73
2023/09/04 10:47:17;;;;;;;4.78;2.92;;;25.90;99.90;;;;;;5073538;28;20166;-73
2023/09/04 10:49:44;;;;;;;5.15;3.13;;;26.10;99.90;;;;;;5073820;28;20166;-73
2023/09/04 10:52:11;;;;;;;3.65;3.33;;;26.30;99.90;;;;;;5073352;28;20448;-73
2023/09/04 10:54:37;;;;;;;3.88;3.47;;;26.40;99.90;;;;;;5073478;28;20544;-71
2023/09/04 10:57:07;;;;;;;3.40;3.15;;;26.50;99.90;;;;;;5074038;28;20192;-73
2023/09/04 10:59:52;;;;;;;3.35;3.05;;;26.60;99.90;;;;;;5072204;28;20607;-73
2023/09/04 11:02:30;;;;;;;3.40;3.10;;;26.90;99.90;;;;;;5072856;28;20173;-73
2023/09/04 11:04:56;;;;;;;3.25;3.00;;;26.80;99.90;;;;;;5073174;28;20201;-75
2023/09/04 11:07:22;;;;;;;3.58;3.28;;;26.80;99.90;;;;;;5072437;28;20198;-75
2023/09/04 11:09:51;;;;;;;3.05;2.85;;;26.80;99.90;;;;;;5072055;28;20194;-73
2023/09/04 11:12:20;;;;;;;3.30;3.00;;;26.80;99.90;;;;;;5072998;28;20163;-73
2023/09/04 11:14:47;;;;;;;3.10;2.85;;;26.80;99.90;;;;;;5073279;28;20186;-73
2023/09/04 11:17:16;;;;;;;3.40;3.20;;;27.00;99.90;;;;;;5073058;28;20550;-73
2023/09/04 11:19:43;;;;;;;3.33;3.03;;;27.30;99.90;;;;;;5071776;28;20174;-72
2023/09/04 11:22:26;;;;;;;3.50;3.20;;;27.30;99.90;;;;;;5072860;28;20197;-73
2023/09/04 11:24:54;;;;;;;3.25;2.95;;;27.30;99.90;;;;;;5072876;28;20644;-73
2023/09/04 11:27:20;;;;;;;3.17;2.92;;;27.40;99.90;;;;;;5072722;28;20167;-73
2023/09/04 11:29:47;;;;;;;3.10;2.90;;;27.40;99.90;;;;;;5073334;28;20754;-73
2023/09/04 11:32:13;;;;;;;5.18;3.05;;;27.20;99.90;;;;;;5072447;28;20185;-72
2023/09/04 11:34:45;;;;;;;3.60;3.30;;;27.20;99.90;;;;;;5073109;28;20194;-74
2023/09/04 11:37:14;;;;;;;3.13;2.92;;;27.20;99.90;;;;;;5072865;28;20758;-72
2023/09/04 11:39:57;;;;;;;3.28;2.97;;;27.40;99.90;;;;;;5073265;28;20177;-73
2023/09/04 11:42:24;;;;;;;7.60;3.33;;;27.50;99.90;;;;;;5075926;28;20189;-73
2023/09/04 11:44:50;;;;;;;4.30;4.00;;;27.60;99.90;;;;;;5073574;28;20198;-73
2023/09/04 11:47:17;;;;;;;3.90;3.60;;;27.70;99.90;;;;;;5072387;28;20189;-73
2023/09/04 11:49:43;;;;;;;3.63;3.33;;;27.80;99.90;;;;;;5072541;28;20167;-72
2023/09/04 11:52:10;;;;;;;4.10;3.80;;;27.70;99.90;;;;;;5072101;28;20166;-72
2023/09/04 11:54:36;;;;;;;3.85;3.55;;;27.70;99.90;;;;;;5070878;28;20202;-74
2023/09/04 11:57:05;;;;;;;6.30;4.35;;;27.70;99.90;;;;;;5072153;28;20224;-75
2023/09/04 11:59:35;;;;;;;3.78;3.25;;;27.90;99.90;;;;;;5072234;28;20181;-74
2023/09/04 12:02:06;;;;;;;4.85;3.72;;;27.90;99.90;;;;;;5072012;28;20381;-76
2023/09/04 12:04:32;;;;;;;6.50;3.97;;;28.00;99.90;;;;;;5072111;28;20301;-73
2023/09/04 12:07:06;;;;;;;5.07;4.78;;;28.10;99.90;;;;;;5072436;28;20174;-73
2023/09/04 12:09:34;;;;;;;4.63;3.53;;;28.30;99.90;;;;;;5071956;28;20673;-72
2023/09/04 12:12:01;;;;;;;5.22;4.90;;;28.40;99.90;;;;;;5071720;28;20652;-73
2023/09/04 12:14:27;;;;;;;5.18;4.78;;;28.70;99.90;;;;;;5071867;28;20200;-72
2023/09/04 12:16:53;;;;;;;4.75;3.20;;;28.90;99.90;;;;;;5072004;28;20197;-73
2023/09/04 12:19:23;;;;;;;3.65;3.35;;;28.90;99.90;;;;;;5071775;28;20652;-73
2023/09/04 12:21:48;;;;;;;4.38;4.03;;;28.90;99.90;;;;;;5071108;28;20249;-73
2023/09/04 12:24:15;;;;;;;6.70;4.30;;;28.90;99.90;;;;;;5071555;28;20289;-73
2023/09/04 12:26:41;;;;;;;4.05;3.70;;;29.00;99.90;;;;;;5071853;28;20667;-73
2023/09/04 12:29:11;;;;;;;3.60;3.35;;;29.00;99.90;;;;;;5071676;28;20180;-73
2023/09/04 12:31:37;;;;;;;3.25;3.05;;;29.10;99.90;;;;;;5071397;28;20170;-73
2023/09/04 12:34:04;;;;;;;3.90;3.60;;;29.40;99.90;;;;;;5071648;28;20174;-71
2023/09/04 12:36:31;;;;;;;3.40;3.10;;;29.50;99.90;;;;;;5071725;28;20201;-74